Wunderground Weather History

Daily Summary for April 28, 2017 Units:  English    Metric   Both
« Previous Day
Next Day »
Daily Weekly Monthly Yearly Custom
  Current: High: Low: Average:
Temperature: 77.0 °F 77.0 °F 75.2 °F 76.5 °F
Dew Point: 75.1 °F 75.6 °F 72.7 °F 75.1 °F
Humidity: 94 % 96 % 92 % 95 %
Wind Speed: 9.9 mph 15.0 mph 3.0 mph 7.7 mph
Wind Gust: 9.9 mph 15.0 mph - -
Wind:South - - SE
Pressure: 29.75 in 29.75 in 29.69 in -
Precipitation: 0.01 in      
Historical Graphs
 
 
Tabular Data for April 28, 2017
Time Temperature Dew Point Pressure Wind Wind Speed Wind Gust Humidity Rainfall Rate (Hourly) Conditions
00:02 75.2 °F 72.7 °F 29.71 in East 4.6 mph 4.6 mph 92 % 0.00 in RA
00:07 75.2 °F 72.7 °F 29.71 in South 6.8 mph 6.8 mph 92 % 0.00 in RA
00:12 75.4 °F 72.9 °F 29.71 in SE 5.8 mph 5.8 mph 92 % 0.00 in BKN
00:17 75.4 °F 73.2 °F 29.71 in ESE 6.9 mph 6.9 mph 93 % 0.00 in OVC
00:22 75.6 °F 73.4 °F 29.71 in ESE 4.6 mph 4.6 mph 93 % 0.00 in OVC
00:27 75.6 °F 73.4 °F 29.70 in ESE 5.8 mph 5.8 mph 93 % 0.00 in OVC
00:32 75.7 °F 73.5 °F 29.70 in SE 8.1 mph 8.1 mph 93 % 0.00 in OVC
00:37 75.7 °F 73.5 °F 29.70 in ESE 5.8 mph 5.8 mph 93 % 0.00 in OVC
00:42 75.7 °F 73.5 °F 29.70 in ESE 5.8 mph 5.8 mph 93 % 0.00 in OVC
00:47 75.9 °F 74.0 °F 29.70 in ESE 6.9 mph 6.9 mph 94 % 0.00 in OVC
00:52 75.9 °F 74.0 °F 29.70 in East 8.1 mph 8.1 mph 94 % 0.00 in OVC
00:58 75.9 °F 74.0 °F 29.70 in ESE 6.3 mph 6.3 mph 94 % 0.00 in OVC
01:03 75.9 °F 74.0 °F 29.70 in SSE 5.8 mph 5.8 mph 94 % 0.00 in OVC
01:08 75.9 °F 74.4 °F 29.70 in ESE 11.5 mph 11.5 mph 95 % 0.00 in OVC
01:13 76.1 °F 74.6 °F 29.70 in South 5.8 mph 5.8 mph 95 % 0.00 in OVC
01:18 76.1 °F 74.6 °F 29.70 in SSE 5.8 mph 5.8 mph 95 % 0.00 in OVC
01:23 76.3 °F 74.8 °F 29.70 in South 7.3 mph 7.3 mph 95 % 0.00 in OVC
01:28 76.3 °F 74.8 °F 29.70 in SSE 4.7 mph 4.7 mph 95 % 0.00 in OVC
01:33 76.3 °F 74.8 °F 29.70 in SE 6.9 mph 6.9 mph 95 % 0.00 in OVC
01:38 76.3 °F 74.8 °F 29.70 in ESE 6.9 mph 6.9 mph 95 % 0.00 in OVC
01:44 76.6 °F 75.1 °F 29.70 in East 9.2 mph 9.2 mph 95 % 0.00 in OVC
01:48 76.6 °F 75.4 °F 29.70 in SE 11.4 mph 11.4 mph 96 % 0.00 in OVC
01:53 76.6 °F 75.4 °F 29.69 in ESE 10.4 mph 10.4 mph 96 % 0.00 in OVC
01:58 76.8 °F 75.6 °F 29.69 in SE 9.2 mph 9.2 mph 96 % 0.00 in OVC
02:04 76.8 °F 75.6 °F 29.69 in SSE 10.4 mph 10.4 mph 96 % 0.00 in OVC
02:09 76.8 °F 75.6 °F 29.69 in SSE 12.7 mph 12.7 mph 96 % 0.00 in OVC
02:14 76.8 °F 75.6 °F 29.69 in ESE 9.2 mph 9.2 mph 96 % 0.00 in OVC
02:19 76.8 °F 75.6 °F 29.69 in SSE 10.9 mph 10.9 mph 96 % 0.00 in OVC
02:24 76.8 °F 75.6 °F 29.69 in SSE 10.4 mph 10.4 mph 96 % 0.00 in OVC
02:29 76.8 °F 75.6 °F 29.69 in ESE 8.3 mph 8.3 mph 96 % 0.00 in OVC
02:34 76.8 °F 75.6 °F 29.69 in East 8.9 mph 8.9 mph 96 % 0.00 in OVC
02:39 76.8 °F 75.6 °F 29.69 in South 8.1 mph 8.1 mph 96 % 0.00 in OVC
02:44 76.8 °F 75.6 °F 29.69 in East 7.8 mph 7.8 mph 96 % 0.00 in OVC
02:49 76.8 °F 75.6 °F 29.69 in SSE 9.9 mph 9.9 mph 96 % 0.00 in OVC
02:54 76.8 °F 75.6 °F 29.69 in SE 7.3 mph 7.3 mph 96 % 0.00 in OVC
02:59 76.8 °F 75.6 °F 29.69 in SSE 9.2 mph 9.2 mph 96 % 0.00 in OVC
03:04 76.8 °F 75.6 °F 29.69 in SSE 9.2 mph 9.2 mph 96 % 0.00 in OVC
03:09 76.8 °F 75.6 °F 29.69 in SSE 7.0 mph 13.0 mph 96 % 0.00 in OVC
03:14 76.8 °F 75.6 °F 29.69 in SSE 8.1 mph 8.1 mph 96 % 0.00 in OVC
03:19 76.8 °F 75.6 °F 29.69 in SE 6.9 mph 6.9 mph 96 % 0.00 in OVC
03:24 76.8 °F 75.6 °F 29.69 in ESE 9.2 mph 9.2 mph 96 % 0.00 in OVC
03:29 76.8 °F 75.6 °F 29.69 in South 9.2 mph 9.2 mph 96 % 0.00 in OVC
03:34 76.8 °F 75.6 °F 29.69 in SE 9.2 mph 9.2 mph 96 % 0.00 in OVC
03:39 76.8 °F 75.6 °F 29.69 in SSE 10.4 mph 10.4 mph 96 % 0.00 in OVC
03:44 76.8 °F 75.6 °F 29.69 in SE 6.0 mph 8.0 mph 96 % 0.00 in OVC
03:49 76.8 °F 75.6 °F 29.69 in SE 3.0 mph 8.0 mph 96 % 0.00 in OVC
03:54 76.6 °F 75.4 °F 29.69 in SE 5.0 mph 11.0 mph 96 % 0.00 in OVC
03:59 76.6 °F 75.4 °F 29.69 in SE 5.0 mph 8.0 mph 96 % 0.00 in OVC
04:04 76.6 °F 75.4 °F 29.69 in SE 6.8 mph 6.8 mph 96 % 0.00 in OVC
04:09 76.6 °F 75.4 °F 29.69 in SE 7.0 mph 9.0 mph 96 % 0.00 in OVC
04:14 76.6 °F 75.4 °F 29.69 in SW 8.1 mph 8.1 mph 96 % 0.00 in OVC
04:19 76.6 °F 75.4 °F 29.69 in SSE 6.0 mph 12.0 mph 96 % 0.00 in OVC
04:24 76.6 °F 75.4 °F 29.69 in SSE 7.0 mph 12.0 mph 96 % 0.00 in OVC
04:29 76.6 °F 75.4 °F 29.69 in SSE 8.0 mph 12.0 mph 96 % 0.00 in OVC
04:34 76.6 °F 75.4 °F 29.69 in SSE 6.0 mph 11.0 mph 96 % 0.00 in OVC
04:39 76.6 °F 75.4 °F 29.70 in SE 6.0 mph 8.0 mph 96 % 0.00 in OVC
04:44 76.6 °F 75.4 °F 29.70 in SE 6.0 mph 8.0 mph 96 % 0.00 in OVC
04:49 76.6 °F 75.4 °F 29.70 in SSE 5.0 mph 10.0 mph 96 % 0.00 in OVC
04:54 76.6 °F 75.4 °F 29.70 in SSE 7.0 mph 10.0 mph 96 % 0.00 in OVC
04:59 76.6 °F 75.4 °F 29.70 in SSE 7.0 mph 12.0 mph 96 % 0.00 in OVC
05:04 76.6 °F 75.4 °F 29.70 in SE 9.4 mph 9.4 mph 96 % 0.00 in OVC
05:09 76.6 °F 75.4 °F 29.70 in WSW 9.2 mph 9.2 mph 96 % 0.00 in OVC
05:14 76.6 °F 75.4 °F 29.70 in SSE 8.9 mph 8.9 mph 96 % 0.00 in OVC
05:19 76.6 °F 75.4 °F 29.71 in SE 7.3 mph 7.3 mph 96 % 0.00 in OVC
05:24 76.8 °F 75.6 °F 29.71 in SSE 15.0 mph 15.0 mph 96 % 0.00 in OVC
05:29 76.8 °F 75.6 °F 29.71 in ESE 6.0 mph 10.0 mph 96 % 0.00 in OVC
05:34 76.8 °F 75.6 °F 29.71 in SE 5.0 mph 8.0 mph 96 % 0.00 in OVC
05:39 76.8 °F 75.6 °F 29.72 in SSE 5.0 mph 12.0 mph 96 % 0.01 in RA
05:44 76.8 °F 75.6 °F 29.72 in SSE 8.0 mph 12.0 mph 96 % 0.01 in RA
05:49 76.8 °F 75.6 °F 29.72 in SE 7.0 mph 8.0 mph 96 % 0.01 in OVC
05:54 76.8 °F 75.6 °F 29.72 in SSE 5.0 mph 8.0 mph 96 % 0.01 in OVC
05:59 76.8 °F 75.6 °F 29.72 in SSE 5.0 mph 10.0 mph 96 % 0.01 in OVC
06:04 76.8 °F 75.6 °F 29.73 in SSE 8.1 mph 8.1 mph 96 % 0.01 in OVC
06:09 76.8 °F 75.6 °F 29.73 in SE 8.1 mph 8.1 mph 96 % 0.01 in OVC
06:14 76.8 °F 75.6 °F 29.73 in ESE 11.5 mph 11.5 mph 96 % 0.01 in OVC
06:19 76.8 °F 75.6 °F 29.73 in ESE 10.4 mph 10.4 mph 96 % 0.01 in OVC
06:24 76.8 °F 75.6 °F 29.73 in ESE 5.8 mph 5.8 mph 96 % 0.01 in OVC
06:29 76.8 °F 75.3 °F 29.73 in South 6.3 mph 6.3 mph 95 % 0.01 in OVC
06:34 76.8 °F 75.3 °F 29.73 in West 9.2 mph 9.2 mph 95 % 0.01 in OVC
06:39 76.8 °F 75.3 °F 29.74 in SSE 10.4 mph 10.4 mph 95 % 0.00 in OVC
06:44 76.8 °F 74.9 °F 29.74 in SE 7.3 mph 7.3 mph 94 % 0.00 in OVC
06:49 77.0 °F 75.1 °F 29.74 in SSE 8.1 mph 8.1 mph 94 % 0.00 in OVC
06:54 77.0 °F 75.1 °F 29.75 in SSE 8.1 mph 8.1 mph 94 % 0.00 in OVC
06:59 77.0 °F 75.1 °F 29.75 in South 9.9 mph 9.9 mph 94 % 0.00 in OVC
Compliments of Weather Underground - 1 mb